sensor_id;sensor_type;location;lat;lon;timestamp;P1;durP1;ratioP1;P2;durP2;ratioP2
25467;SDS011;13384;24.794;110.498;2023-07-24T00:01:16;8.23;;;7.63;;
25467;SDS011;13384;24.794;110.498;2023-07-24T00:03:47;8.05;;;7.55;;
25467;SDS011;13384;24.794;110.498;2023-07-24T00:06:19;8.07;;;7.57;;
25467;SDS011;13384;24.794;110.498;2023-07-24T00:08:50;7.82;;;7.32;;
25467;SDS011;13384;24.794;110.498;2023-07-24T00:11:22;7.97;;;7.45;;
25467;SDS011;13384;24.794;110.498;2023-07-24T00:13:53;8.07;;;7.57;;
25467;SDS011;13384;24.794;110.498;2023-07-24T00:16:24;7.57;;;7.18;;
25467;SDS011;13384;24.794;110.498;2023-07-24T00:18:56;7.90;;;7.43;;
25467;SDS011;13384;24.794;110.498;2023-07-24T00:21:28;7.05;;;6.65;;
25467;SDS011;13384;24.794;110.498;2023-07-24T00:24:00;8.02;;;7.53;;
25467;SDS011;13384;24.794;110.498;2023-07-24T00:26:31;7.38;;;6.80;;
25467;SDS011;13384;24.794;110.498;2023-07-24T00:29:03;7.65;;;7.05;;
25467;SDS011;13384;24.794;110.498;2023-07-24T00:31:38;8.60;;;7.90;;
25467;SDS011;13384;24.794;110.498;2023-07-24T00:34:09;7.75;;;7.25;;
25467;SDS011;13384;24.794;110.498;2023-07-24T00:36:41;7.63;;;7.13;;
25467;SDS011;13384;24.794;110.498;2023-07-24T00:39:16;7.93;;;7.43;;
25467;SDS011;13384;24.794;110.498;2023-07-24T00:41:47;7.60;;;7.15;;
25467;SDS011;13384;24.794;110.498;2023-07-24T00:47:01;8.00;;;7.50;;
25467;SDS011;13384;24.794;110.498;2023-07-24T00:49:33;7.90;;;7.40;;
25467;SDS011;13384;24.794;110.498;2023-07-24T00:52:05;8.13;;;7.63;;
25467;SDS011;13384;24.794;110.498;2023-07-24T00:54:37;7.97;;;7.47;;
25467;SDS011;13384;24.794;110.498;2023-07-24T00:57:09;7.53;;;6.90;;
25467;SDS011;13384;24.794;110.498;2023-07-24T00:59:41;8.07;;;7.50;;
25467;SDS011;13384;24.794;110.498;2023-07-24T01:02:13;8.07;;;7.57;;
25467;SDS011;13384;24.794;110.498;2023-07-24T01:04:45;8.00;;;7.50;;
25467;SDS011;13384;24.794;110.498;2023-07-24T01:07:17;7.70;;;7.30;;
25467;SDS011;13384;24.794;110.498;2023-07-24T01:09:49;8.30;;;7.70;;
25467;SDS011;13384;24.794;110.498;2023-07-24T01:15:06;8.32;;;7.82;;
25467;SDS011;13384;24.794;110.498;2023-07-24T01:17:45;7.60;;;7.10;;
25467;SDS011;13384;24.794;110.498;2023-07-24T01:20:22;7.65;;;7.15;;
25467;SDS011;13384;24.794;110.498;2023-07-24T01:28:29;7.30;;;6.80;;
25467;SDS011;13384;24.794;110.498;2023-07-24T01:31:02;7.00;;;6.60;;
25467;SDS011;13384;24.794;110.498;2023-07-24T01:33:34;7.78;;;7.18;;
25467;SDS011;13384;24.794;110.498;2023-07-24T01:36:06;7.32;;;6.93;;
25467;SDS011;13384;24.794;110.498;2023-07-24T01:38:39;6.90;;;6.50;;
25467;SDS011;13384;24.794;110.498;2023-07-24T01:41:11;7.95;;;7.43;;
25467;SDS011;13384;24.794;110.498;2023-07-24T01:43:46;7.32;;;6.93;;
25467;SDS011;13384;24.794;110.498;2023-07-24T01:46:18;7.43;;;6.93;;
25467;SDS011;13384;24.794;110.498;2023-07-24T01:48:49;6.82;;;6.43;;
25467;SDS011;13384;24.794;110.498;2023-07-24T01:51:22;7.87;;;7.37;;
25467;SDS011;13384;24.794;110.498;2023-07-24T01:53:54;7.20;;;6.80;;
25467;SDS011;13384;24.794;110.498;2023-07-24T01:56:27;7.80;;;7.30;;
25467;SDS011;13384;24.794;110.498;2023-07-24T01:59:00;7.45;;;7.05;;
25467;SDS011;13384;24.794;110.498;2023-07-24T02:01:31;7.95;;;7.45;;
25467;SDS011;13384;24.794;110.498;2023-07-24T02:04:15;8.05;;;7.45;;
25467;SDS011;13384;24.794;110.498;2023-07-24T02:06:48;7.40;;;6.90;;
25467;SDS011;13384;24.794;110.498;2023-07-24T02:09:20;7.70;;;7.20;;
25467;SDS011;13384;24.794;110.498;2023-07-24T02:11:51;7.43;;;7.00;;
25467;SDS011;13384;24.794;110.498;2023-07-24T02:14:23;7.30;;;6.85;;
25467;SDS011;13384;24.794;110.498;2023-07-24T02:16:56;7.57;;;7.07;;
25467;SDS011;13384;24.794;110.498;2023-07-24T02:19:28;6.68;;;6.28;;
25467;SDS011;13384;24.794;110.498;2023-07-24T02:22:13;8.25;;;7.70;;
25467;SDS011;13384;24.794;110.498;2023-07-24T02:24:45;7.65;;;7.22;;
25467;SDS011;13384;24.794;110.498;2023-07-24T02:27:27;7.93;;;7.38;;
25467;SDS011;13384;24.794;110.498;2023-07-24T02:30:01;7.90;;;7.40;;
25467;SDS011;13384;24.794;110.498;2023-07-24T02:32:35;7.75;;;7.35;;
25467;SDS011;13384;24.794;110.498;2023-07-24T02:35:08;7.78;;;7.20;;
25467;SDS011;13384;24.794;110.498;2023-07-24T02:37:45;7.68;;;7.18;;
25467;SDS011;13384;24.794;110.498;2023-07-24T02:40:16;7.82;;;7.13;;
25467;SDS011;13384;24.794;110.498;2023-07-24T02:42:48;8.00;;;7.38;;
25467;SDS011;13384;24.794;110.498;2023-07-24T02:45:20;7.72;;;7.25;;
25467;SDS011;13384;24.794;110.498;2023-07-24T02:47:52;7.90;;;7.20;;
25467;SDS011;13384;24.794;110.498;2023-07-24T02:50:24;8.18;;;7.57;;
25467;SDS011;13384;24.794;110.498;2023-07-24T02:52:56;8.00;;;7.47;;
25467;SDS011;13384;24.794;110.498;2023-07-24T02:55:29;7.45;;;7.05;;
25467;SDS011;13384;24.794;110.498;2023-07-24T02:58:01;7.30;;;6.90;;
25467;SDS011;13384;24.794;110.498;2023-07-24T03:00:32;8.10;;;7.60;;
25467;SDS011;13384;24.794;110.498;2023-07-24T03:03:04;8.13;;;7.57;;
25467;SDS011;13384;24.794;110.498;2023-07-24T03:05:35;7.80;;;7.35;;
25467;SDS011;13384;24.794;110.498;2023-07-24T03:08:07;7.15;;;6.75;;
25467;SDS011;13384;24.794;110.498;2023-07-24T03:10:42;7.90;;;7.32;;
25467;SDS011;13384;24.794;110.498;2023-07-24T03:13:15;7.15;;;6.75;;
25467;SDS011;13384;24.794;110.498;2023-07-24T03:15:56;7.70;;;7.07;;
25467;SDS011;13384;24.794;110.498;2023-07-24T03:18:28;7.55;;;7.10;;
25467;SDS011;13384;24.794;110.498;2023-07-24T03:21:00;7.55;;;7.07;;
25467;SDS011;13384;24.794;110.498;2023-07-24T03:23:32;7.50;;;7.07;;
25467;SDS011;13384;24.794;110.498;2023-07-24T03:26:04;8.00;;;7.50;;
25467;SDS011;13384;24.794;110.498;2023-07-24T03:31:18;7.80;;;7.30;;
25467;SDS011;13384;24.794;110.498;2023-07-24T03:33:50;7.40;;;6.90;;
25467;SDS011;13384;24.794;110.498;2023-07-24T03:36:22;7.40;;;6.97;;
25467;SDS011;13384;24.794;110.498;2023-07-24T03:38:57;7.60;;;7.20;;
25467;SDS011;13384;24.794;110.498;2023-07-24T03:41:32;7.55;;;7.15;;
25467;SDS011;13384;24.794;110.498;2023-07-24T03:44:06;7.95;;;7.35;;
25467;SDS011;13384;24.794;110.498;2023-07-24T03:46:37;7.65;;;7.25;;
25467;SDS011;13384;24.794;110.498;2023-07-24T03:49:10;7.40;;;7.00;;
25467;SDS011;13384;24.794;110.498;2023-07-24T03:51:41;7.50;;;7.10;;
25467;SDS011;13384;24.794;110.498;2023-07-24T03:54:13;7.60;;;7.10;;
25467;SDS011;13384;24.794;110.498;2023-07-24T03:56:44;7.35;;;6.95;;
25467;SDS011;13384;24.794;110.498;2023-07-24T03:59:15;7.70;;;7.30;;
25467;SDS011;13384;24.794;110.498;2023-07-24T04:01:47;7.22;;;6.72;;
25467;SDS011;13384;24.794;110.498;2023-07-24T04:04:18;7.63;;;7.20;;
25467;SDS011;13384;24.794;110.498;2023-07-24T04:06:50;7.28;;;6.85;;
25467;SDS011;13384;24.794;110.498;2023-07-24T04:09:22;7.18;;;6.78;;
25467;SDS011;13384;24.794;110.498;2023-07-24T04:11:53;7.20;;;6.80;;
25467;SDS011;13384;24.794;110.498;2023-07-24T04:14:29;7.85;;;7.35;;
25467;SDS011;13384;24.794;110.498;2023-07-24T04:17:10;7.28;;;6.88;;
25467;SDS011;13384;24.794;110.498;2023-07-24T04:19:42;7.78;;;7.28;;
25467;SDS011;13384;24.794;110.498;2023-07-24T04:22:13;7.30;;;6.88;;
25467;SDS011;13384;24.794;110.498;2023-07-24T04:24:50;7.32;;;6.93;;
25467;SDS011;13384;24.794;110.498;2023-07-24T04:27:22;7.28;;;6.78;;
25467;SDS011;13384;24.794;110.498;2023-07-24T04:32:29;7.07;;;6.70;;
25467;SDS011;13384;24.794;110.498;2023-07-24T04:35:36;7.38;;;6.88;;
25467;SDS011;13384;24.794;110.498;2023-07-24T04:38:07;7.47;;;7.00;;
25467;SDS011;13384;24.794;110.498;2023-07-24T04:40:38;6.97;;;6.60;;
25467;SDS011;13384;24.794;110.498;2023-07-24T04:43:10;7.53;;;7.13;;
25467;SDS011;13384;24.794;110.498;2023-07-24T04:45:41;7.70;;;7.25;;
25467;SDS011;13384;24.794;110.498;2023-07-24T04:48:13;7.25;;;6.85;;
25467;SDS011;13384;24.794;110.498;2023-07-24T04:50:44;7.00;;;6.60;;
25467;SDS011;13384;24.794;110.498;2023-07-24T04:53:15;7.15;;;6.75;;
25467;SDS011;13384;24.794;110.498;2023-07-24T04:55:47;7.13;;;6.72;;
25467;SDS011;13384;24.794;110.498;2023-07-24T04:58:18;7.28;;;6.82;;
25467;SDS011;13384;24.794;110.498;2023-07-24T05:00:50;7.63;;;7.13;;
25467;SDS011;13384;24.794;110.498;2023-07-24T05:03:22;7.95;;;7.47;;
25467;SDS011;13384;24.794;110.498;2023-07-24T05:05:56;7.45;;;7.05;;
25467;SDS011;13384;24.794;110.498;2023-07-24T05:08:27;6.88;;;6.47;;
25467;SDS011;13384;24.794;110.498;2023-07-24T05:10:59;7.63;;;7.13;;
25467;SDS011;13384;24.794;110.498;2023-07-24T05:13:30;7.25;;;6.80;;
25467;SDS011;13384;24.794;110.498;2023-07-24T05:16:02;7.20;;;6.80;;
25467;SDS011;13384;24.794;110.498;2023-07-24T05:18:36;7.22;;;6.82;;
25467;SDS011;13384;24.794;110.498;2023-07-24T05:21:08;7.72;;;7.13;;
25467;SDS011;13384;24.794;110.498;2023-07-24T05:23:39;6.97;;;6.57;;
25467;SDS011;13384;24.794;110.498;2023-07-24T05:26:22;7.30;;;6.90;;
25467;SDS011;13384;24.794;110.498;2023-07-24T05:28:55;7.22;;;6.82;;
25467;SDS011;13384;24.794;110.498;2023-07-24T05:31:26;7.15;;;6.75;;
25467;SDS011;13384;24.794;110.498;2023-07-24T05:33:58;7.18;;;6.78;;
25467;SDS011;13384;24.794;110.498;2023-07-24T05:36:29;8.25;;;6.80;;
25467;SDS011;13384;24.794;110.498;2023-07-24T05:39:00;7.13;;;6.72;;
25467;SDS011;13384;24.794;110.498;2023-07-24T05:41:31;7.28;;;6.88;;
25467;SDS011;13384;24.794;110.498;2023-07-24T05:46:35;7.28;;;6.88;;
25467;SDS011;13384;24.794;110.498;2023-07-24T05:49:11;7.25;;;6.75;;
25467;SDS011;13384;24.794;110.498;2023-07-24T05:51:43;6.85;;;6.47;;
25467;SDS011;13384;24.794;110.498;2023-07-24T05:54:14;7.47;;;6.95;;
25467;SDS011;13384;24.794;110.498;2023-07-24T05:56:45;7.00;;;6.60;;
25467;SDS011;13384;24.794;110.498;2023-07-24T05:59:17;7.03;;;6.63;;
25467;SDS011;13384;24.794;110.498;2023-07-24T06:01:48;7.15;;;6.75;;
25467;SDS011;13384;24.794;110.498;2023-07-24T06:04:24;6.13;;;5.82;;
25467;SDS011;13384;24.794;110.498;2023-07-24T06:06:56;6.35;;;6.05;;
25467;SDS011;13384;24.794;110.498;2023-07-24T06:09:27;6.80;;;6.32;;
25467;SDS011;13384;24.794;110.498;2023-07-24T06:11:58;6.70;;;6.30;;
25467;SDS011;13384;24.794;110.498;2023-07-24T06:14:30;7.00;;;6.50;;
25467;SDS011;13384;24.794;110.498;2023-07-24T06:17:01;6.55;;;6.10;;
25467;SDS011;13384;24.794;110.498;2023-07-24T06:19:54;6.72;;;6.32;;
25467;SDS011;13384;24.794;110.498;2023-07-24T06:22:26;6.60;;;6.28;;
25467;SDS011;13384;24.794;110.498;2023-07-24T06:24:57;6.30;;;6.00;;
25467;SDS011;13384;24.794;110.498;2023-07-24T06:27:29;5.90;;;5.60;;
25467;SDS011;13384;24.794;110.498;2023-07-24T06:30:00;6.20;;;5.90;;
25467;SDS011;13384;24.794;110.498;2023-07-24T06:32:42;6.53;;;6.22;;
25467;SDS011;13384;24.794;110.498;2023-07-24T06:35:13;6.38;;;6.05;;
25467;SDS011;13384;24.794;110.498;2023-07-24T06:37:44;6.53;;;6.22;;
25467;SDS011;13384;24.794;110.498;2023-07-24T06:40:16;6.30;;;6.00;;
25467;SDS011;13384;24.794;110.498;2023-07-24T06:42:47;6.60;;;6.30;;
25467;SDS011;13384;24.794;110.498;2023-07-24T06:45:19;6.95;;;6.55;;
25467;SDS011;13384;24.794;110.498;2023-07-24T06:47:50;6.40;;;6.10;;
25467;SDS011;13384;24.794;110.498;2023-07-24T06:50:22;6.68;;;6.30;;
25467;SDS011;13384;24.794;110.498;2023-07-24T06:52:53;6.50;;;6.10;;
25467;SDS011;13384;24.794;110.498;2023-07-24T06:55:24;6.13;;;5.82;;
25467;SDS011;13384;24.794;110.498;2023-07-24T06:57:56;6.53;;;6.15;;
25467;SDS011;13384;24.794;110.498;2023-07-24T07:00:27;6.80;;;6.40;;
25467;SDS011;13384;24.794;110.498;2023-07-24T07:02:59;7.07;;;6.68;;
25467;SDS011;13384;24.794;110.498;2023-07-24T07:05:31;7.05;;;6.65;;
25467;SDS011;13384;24.794;110.498;2023-07-24T07:08:13;6.72;;;6.30;;
25467;SDS011;13384;24.794;110.498;2023-07-24T07:10:44;6.75;;;6.45;;
25467;SDS011;13384;24.794;110.498;2023-07-24T07:13:17;6.85;;;6.47;;
25467;SDS011;13384;24.794;110.498;2023-07-24T07:18:32;6.53;;;6.22;;
25467;SDS011;13384;24.794;110.498;2023-07-24T07:21:03;6.63;;;6.30;;
25467;SDS011;13384;24.794;110.498;2023-07-24T07:23:35;7.10;;;6.70;;
25467;SDS011;13384;24.794;110.498;2023-07-24T07:26:06;6.68;;;6.38;;
25467;SDS011;13384;24.794;110.498;2023-07-24T07:28:38;6.63;;;6.22;;
25467;SDS011;13384;24.794;110.498;2023-07-24T07:31:13;6.57;;;6.18;;
25467;SDS011;13384;24.794;110.498;2023-07-24T07:33:45;6.55;;;6.25;;
25467;SDS011;13384;24.794;110.498;2023-07-24T07:36:16;6.43;;;6.13;;
25467;SDS011;13384;24.794;110.498;2023-07-24T07:38:47;6.70;;;6.40;;
25467;SDS011;13384;24.794;110.498;2023-07-24T07:41:19;7.10;;;6.60;;
25467;SDS011;13384;24.794;110.498;2023-07-24T07:43:50;6.50;;;6.20;;
25467;SDS011;13384;24.794;110.498;2023-07-24T07:46:21;7.45;;;6.80;;
25467;SDS011;13384;24.794;110.498;2023-07-24T07:48:53;6.72;;;6.43;;
25467;SDS011;13384;24.794;110.498;2023-07-24T07:51:28;6.28;;;5.97;;
25467;SDS011;13384;24.794;110.498;2023-07-24T07:53:59;6.43;;;6.13;;
25467;SDS011;13384;24.794;110.498;2023-07-24T07:56:30;6.40;;;6.10;;
25467;SDS011;13384;24.794;110.498;2023-07-24T08:01:35;6.75;;;6.43;;
25467;SDS011;13384;24.794;110.498;2023-07-24T08:04:15;6.70;;;6.30;;
25467;SDS011;13384;24.794;110.498;2023-07-24T08:06:48;7.23;;;6.70;;
25467;SDS011;13384;24.794;110.498;2023-07-24T08:09:34;6.90;;;6.50;;
25467;SDS011;13384;24.794;110.498;2023-07-24T08:12:17;6.63;;;6.32;;
25467;SDS011;13384;24.794;110.498;2023-07-24T08:14:52;6.82;;;6.53;;
25467;SDS011;13384;24.794;110.498;2023-07-24T08:17:23;6.80;;;6.50;;
25467;SDS011;13384;24.794;110.498;2023-07-24T08:19:55;6.80;;;6.40;;
25467;SDS011;13384;24.794;110.498;2023-07-24T08:22:26;6.82;;;6.53;;
25467;SDS011;13384;24.794;110.498;2023-07-24T08:24:57;6.55;;;6.25;;
25467;SDS011;13384;24.794;110.498;2023-07-24T08:27:29;7.15;;;6.63;;
25467;SDS011;13384;24.794;110.498;2023-07-24T08:30:22;7.00;;;6.60;;
25467;SDS011;13384;24.794;110.498;2023-07-24T08:32:53;6.78;;;6.38;;
25467;SDS011;13384;24.794;110.498;2023-07-24T08:35:28;6.97;;;6.60;;
25467;SDS011;13384;24.794;110.498;2023-07-24T08:38:05;7.00;;;6.60;;
25467;SDS011;13384;24.794;110.498;2023-07-24T08:40:36;7.20;;;6.80;;
25467;SDS011;13384;24.794;110.498;2023-07-24T08:43:09;8.20;;;7.78;;
25467;SDS011;13384;24.794;110.498;2023-07-24T08:45:40;6.75;;;6.35;;
25467;SDS011;13384;24.794;110.498;2023-07-24T08:48:12;7.30;;;6.90;;
25467;SDS011;13384;24.794;110.498;2023-07-24T08:50:44;6.88;;;6.47;;
25467;SDS011;13384;24.794;110.498;2023-07-24T08:53:17;6.90;;;6.50;;
25467;SDS011;13384;24.794;110.498;2023-07-24T08:55:54;6.97;;;6.57;;
25467;SDS011;13384;24.794;110.498;2023-07-24T08:58:26;7.55;;;7.10;;
25467;SDS011;13384;24.794;110.498;2023-07-24T09:00:57;7.30;;;6.90;;
25467;SDS011;13384;24.794;110.498;2023-07-24T09:03:30;6.93;;;6.53;;
25467;SDS011;13384;24.794;110.498;2023-07-24T09:06:03;7.35;;;6.95;;
25467;SDS011;13384;24.794;110.498;2023-07-24T09:08:38;6.80;;;6.50;;
25467;SDS011;13384;24.794;110.498;2023-07-24T09:11:14;7.10;;;6.70;;
25467;SDS011;13384;24.794;110.498;2023-07-24T09:13:53;7.45;;;6.82;;
25467;SDS011;13384;24.794;110.498;2023-07-24T09:16:42;7.50;;;6.93;;
25467;SDS011;13384;24.794;110.498;2023-07-24T09:19:17;6.93;;;6.53;;
25467;SDS011;13384;24.794;110.498;2023-07-24T09:21:52;7.05;;;6.55;;
25467;SDS011;13384;24.794;110.498;2023-07-24T09:24:23;7.00;;;6.60;;
25467;SDS011;13384;24.794;110.498;2023-07-24T09:26:55;7.40;;;6.82;;
25467;SDS011;13384;24.794;110.498;2023-07-24T09:29:33;7.20;;;6.80;;
25467;SDS011;13384;24.794;110.498;2023-07-24T09:32:04;6.57;;;6.28;;
25467;SDS011;13384;24.794;110.498;2023-07-24T09:34:41;6.93;;;6.57;;
25467;SDS011;13384;24.794;110.498;2023-07-24T09:37:22;7.05;;;6.68;;
25467;SDS011;13384;24.794;110.498;2023-07-24T09:40:16;6.95;;;6.55;;
25467;SDS011;13384;24.794;110.498;2023-07-24T09:42:47;7.07;;;6.68;;
25467;SDS011;13384;24.794;110.498;2023-07-24T09:45:39;6.80;;;6.43;;
25467;SDS011;13384;24.794;110.498;2023-07-24T09:48:13;7.50;;;7.10;;
25467;SDS011;13384;24.794;110.498;2023-07-24T09:51:05;6.78;;;6.40;;
25467;SDS011;13384;24.794;110.498;2023-07-24T09:53:43;6.93;;;6.55;;
25467;SDS011;13384;24.794;110.498;2023-07-24T09:56:21;6.40;;;6.10;;
25467;SDS011;13384;24.794;110.498;2023-07-24T09:59:14;6.55;;;6.22;;
25467;SDS011;13384;24.794;110.498;2023-07-24T10:01:47;6.93;;;6.55;;
25467;SDS011;13384;24.794;110.498;2023-07-24T10:04:19;7.38;;;6.97;;
25467;SDS011;13384;24.794;110.498;2023-07-24T10:06:54;6.80;;;6.40;;
25467;SDS011;13384;24.794;110.498;2023-07-24T10:09:25;7.30;;;6.90;;
25467;SDS011;13384;24.794;110.498;2023-07-24T10:11:58;7.30;;;6.80;;
25467;SDS011;13384;24.794;110.498;2023-07-24T10:14:30;6.47;;;6.13;;
25467;SDS011;13384;24.794;110.498;2023-07-24T10:17:02;7.07;;;6.68;;
25467;SDS011;13384;24.794;110.498;2023-07-24T10:19:41;6.85;;;6.45;;
25467;SDS011;13384;24.794;110.498;2023-07-24T10:22:19;6.93;;;6.53;;
25467;SDS011;13384;24.794;110.498;2023-07-24T10:24:55;7.22;;;6.82;;
25467;SDS011;13384;24.794;110.498;2023-07-24T10:27:44;6.78;;;6.38;;
25467;SDS011;13384;24.794;110.498;2023-07-24T10:30:16;7.30;;;6.90;;
25467;SDS011;13384;24.794;110.498;2023-07-24T10:33:09;6.88;;;6.47;;
25467;SDS011;13384;24.794;110.498;2023-07-24T10:35:47;7.60;;;7.00;;
25467;SDS011;13384;24.794;110.498;2023-07-24T10:38:43;6.80;;;6.40;;
25467;SDS011;13384;24.794;110.498;2023-07-24T10:41:15;6.82;;;6.38;;
25467;SDS011;13384;24.794;110.498;2023-07-24T10:43:50;7.45;;;7.05;;
25467;SDS011;13384;24.794;110.498;2023-07-24T10:46:22;7.03;;;6.63;;
25467;SDS011;13384;24.794;110.498;2023-07-24T10:48:53;7.55;;;7.05;;
25467;SDS011;13384;24.794;110.498;2023-07-24T10:51:24;7.68;;;7.18;;
25467;SDS011;13384;24.794;110.498;2023-07-24T10:53:56;9.27;;;8.65;;
25467;SDS011;13384;24.794;110.498;2023-07-24T10:56:39;7.57;;;7.07;;
25467;SDS011;13384;24.794;110.498;2023-07-24T10:59:10;7.20;;;6.60;;
25467;SDS011;13384;24.794;110.498;2023-07-24T11:01:44;6.72;;;6.40;;
25467;SDS011;13384;24.794;110.498;2023-07-24T11:04:19;7.15;;;6.75;;
25467;SDS011;13384;24.794;110.498;2023-07-24T11:06:54;7.47;;;7.00;;
25467;SDS011;13384;24.794;110.498;2023-07-24T11:09:36;7.10;;;6.70;;
25467;SDS011;13384;24.794;110.498;2023-07-24T11:12:13;7.45;;;7.00;;
25467;SDS011;13384;24.794;110.498;2023-07-24T11:14:52;6.95;;;6.55;;
25467;SDS011;13384;24.794;110.498;2023-07-24T11:17:33;7.10;;;6.70;;
25467;SDS011;13384;24.794;110.498;2023-07-24T11:20:11;7.25;;;6.85;;
25467;SDS011;13384;24.794;110.498;2023-07-24T11:22:43;7.35;;;6.95;;
25467;SDS011;13384;24.794;110.498;2023-07-24T11:25:15;7.78;;;7.20;;
25467;SDS011;13384;24.794;110.498;2023-07-24T11:27:48;7.40;;;7.00;;
25467;SDS011;13384;24.794;110.498;2023-07-24T11:30:20;7.93;;;7.32;;
25467;SDS011;13384;24.794;110.498;2023-07-24T11:33:15;8.20;;;7.70;;
25467;SDS011;13384;24.794;110.498;2023-07-24T11:35:47;7.85;;;7.35;;
25467;SDS011;13384;24.794;110.498;2023-07-24T11:38:23;8.80;;;8.30;;
25467;SDS011;13384;24.794;110.498;2023-07-24T11:40:55;8.73;;;8.02;;
25467;SDS011;13384;24.794;110.498;2023-07-24T11:43:27;8.20;;;7.70;;
25467;SDS011;13384;24.794;110.498;2023-07-24T11:45:58;8.63;;;8.02;;
25467;SDS011;13384;24.794;110.498;2023-07-24T11:48:29;8.30;;;7.72;;
25467;SDS011;13384;24.794;110.498;2023-07-24T11:51:00;8.00;;;7.50;;
25467;SDS011;13384;24.794;110.498;2023-07-24T11:53:32;7.65;;;7.25;;
25467;SDS011;13384;24.794;110.498;2023-07-24T11:56:12;8.10;;;7.50;;
25467;SDS011;13384;24.794;110.498;2023-07-24T11:58:45;7.80;;;7.30;;
25467;SDS011;13384;24.794;110.498;2023-07-24T12:01:16;8.18;;;7.57;;
25467;SDS011;13384;24.794;110.498;2023-07-24T12:03:48;7.88;;;7.43;;
25467;SDS011;13384;24.794;110.498;2023-07-24T12:06:20;7.88;;;7.38;;
25467;SDS011;13384;24.794;110.498;2023-07-24T12:11:32;8.45;;;7.85;;
25467;SDS011;13384;24.794;110.498;2023-07-24T12:14:04;7.82;;;7.32;;
25467;SDS011;13384;24.794;110.498;2023-07-24T12:16:36;8.43;;;7.82;;
25467;SDS011;13384;24.794;110.498;2023-07-24T12:19:08;8.15;;;7.55;;
25467;SDS011;13384;24.794;110.498;2023-07-24T12:21:39;7.75;;;7.28;;
25467;SDS011;13384;24.794;110.498;2023-07-24T12:24:10;8.20;;;7.70;;
25467;SDS011;13384;24.794;110.498;2023-07-24T12:26:42;8.15;;;7.60;;
25467;SDS011;13384;24.794;110.498;2023-07-24T12:29:17;8.07;;;7.57;;
25467;SDS011;13384;24.794;110.498;2023-07-24T12:31:49;8.02;;;7.50;;
25467;SDS011;13384;24.794;110.498;2023-07-24T12:34:21;8.38;;;7.68;;
25467;SDS011;13384;24.794;110.498;2023-07-24T12:36:53;8.63;;;8.02;;
25467;SDS011;13384;24.794;110.498;2023-07-24T12:39:24;8.13;;;7.63;;
25467;SDS011;13384;24.794;110.498;2023-07-24T12:41:56;8.63;;;8.02;;
25467;SDS011;13384;24.794;110.498;2023-07-24T12:44:27;8.27;;;7.68;;
25467;SDS011;13384;24.794;110.498;2023-07-24T12:47:03;8.05;;;7.53;;
25467;SDS011;13384;24.794;110.498;2023-07-24T12:49:35;8.05;;;7.55;;
25467;SDS011;13384;24.794;110.498;2023-07-24T12:52:07;8.50;;;7.90;;
25467;SDS011;13384;24.794;110.498;2023-07-24T12:54:38;8.55;;;7.90;;
25467;SDS011;13384;24.794;110.498;2023-07-24T12:57:28;8.18;;;7.68;;
25467;SDS011;13384;24.794;110.498;2023-07-24T13:00:01;8.60;;;8.00;;
25467;SDS011;13384;24.794;110.498;2023-07-24T13:02:34;8.48;;;7.95;;
25467;SDS011;13384;24.794;110.498;2023-07-24T13:05:06;8.80;;;8.20;;
25467;SDS011;13384;24.794;110.498;2023-07-24T13:07:38;8.32;;;7.72;;
25467;SDS011;13384;24.794;110.498;2023-07-24T13:10:09;8.10;;;7.60;;
25467;SDS011;13384;24.794;110.498;2023-07-24T13:12:41;7.97;;;7.47;;
25467;SDS011;13384;24.794;110.498;2023-07-24T13:15:14;8.00;;;7.50;;
25467;SDS011;13384;24.794;110.498;2023-07-24T13:17:45;7.95;;;7.45;;
25467;SDS011;13384;24.794;110.498;2023-07-24T13:20:18;7.88;;;7.38;;
25467;SDS011;13384;24.794;110.498;2023-07-24T13:22:49;8.00;;;7.40;;
25467;SDS011;13384;24.794;110.498;2023-07-24T13:25:26;8.00;;;7.50;;
25467;SDS011;13384;24.794;110.498;2023-07-24T13:27:57;8.23;;;7.72;;
25467;SDS011;13384;24.794;110.498;2023-07-24T13:30:28;8.35;;;7.85;;
25467;SDS011;13384;24.794;110.498;2023-07-24T13:32:59;8.23;;;7.63;;
25467;SDS011;13384;24.794;110.498;2023-07-24T13:35:31;8.57;;;7.97;;
25467;SDS011;13384;24.794;110.498;2023-07-24T13:38:02;8.38;;;7.88;;
25467;SDS011;13384;24.794;110.498;2023-07-24T13:40:34;7.85;;;7.35;;
25467;SDS011;13384;24.794;110.498;2023-07-24T13:43:05;7.68;;;7.28;;
25467;SDS011;13384;24.794;110.498;2023-07-24T13:45:43;8.10;;;7.60;;
25467;SDS011;13384;24.794;110.498;2023-07-24T13:48:14;8.07;;;7.50;;
25467;SDS011;13384;24.794;110.498;2023-07-24T13:50:46;8.30;;;7.70;;
25467;SDS011;13384;24.794;110.498;2023-07-24T13:53:18;8.10;;;7.60;;
25467;SDS011;13384;24.794;110.498;2023-07-24T13:55:49;8.10;;;7.60;;
25467;SDS011;13384;24.794;110.498;2023-07-24T13:58:22;7.95;;;7.45;;
25467;SDS011;13384;24.794;110.498;2023-07-24T14:00:53;7.78;;;7.28;;
25467;SDS011;13384;24.794;110.498;2023-07-24T14:03:24;8.23;;;7.60;;
25467;SDS011;13384;24.794;110.498;2023-07-24T14:05:59;8.63;;;8.02;;
25467;SDS011;13384;24.794;110.498;2023-07-24T14:08:30;7.82;;;7.32;;
25467;SDS011;13384;24.794;110.498;2023-07-24T14:11:03;7.75;;;7.25;;
25467;SDS011;13384;24.794;110.498;2023-07-24T14:13:34;7.95;;;7.35;;
25467;SDS011;13384;24.794;110.498;2023-07-24T14:16:06;8.40;;;7.90;;
25467;SDS011;13384;24.794;110.498;2023-07-24T14:18:37;8.43;;;7.82;;
25467;SDS011;13384;24.794;110.498;2023-07-24T14:21:09;8.30;;;7.70;;
25467;SDS011;13384;24.794;110.498;2023-07-24T14:23:40;7.32;;;6.93;;
25467;SDS011;13384;24.794;110.498;2023-07-24T14:26:12;7.78;;;7.28;;
25467;SDS011;13384;24.794;110.498;2023-07-24T14:28:43;8.40;;;7.80;;
25467;SDS011;13384;24.794;110.498;2023-07-24T14:31:14;7.47;;;6.97;;
25467;SDS011;13384;24.794;110.498;2023-07-24T14:33:46;8.05;;;7.45;;
25467;SDS011;13384;24.794;110.498;2023-07-24T14:36:18;7.70;;;7.20;;
25467;SDS011;13384;24.794;110.498;2023-07-24T14:38:49;8.18;;;7.50;;
25467;SDS011;13384;24.794;110.498;2023-07-24T14:41:20;8.00;;;7.47;;
25467;SDS011;13384;24.794;110.498;2023-07-24T14:43:51;8.63;;;8.02;;
25467;SDS011;13384;24.794;110.498;2023-07-24T14:46:22;8.40;;;7.80;;
25467;SDS011;13384;24.794;110.498;2023-07-24T14:48:54;7.60;;;7.13;;
25467;SDS011;13384;24.794;110.498;2023-07-24T14:51:26;7.60;;;7.10;;
25467;SDS011;13384;24.794;110.498;2023-07-24T14:54:00;8.07;;;7.47;;
25467;SDS011;13384;24.794;110.498;2023-07-24T14:56:31;7.80;;;7.30;;
25467;SDS011;13384;24.794;110.498;2023-07-24T14:59:22;7.80;;;7.22;;
25467;SDS011;13384;24.794;110.498;2023-07-24T15:01:54;7.57;;;7.07;;
25467;SDS011;13384;24.794;110.498;2023-07-24T15:04:25;8.52;;;7.85;;
25467;SDS011;13384;24.794;110.498;2023-07-24T15:06:56;8.00;;;7.40;;
25467;SDS011;13384;24.794;110.498;2023-07-24T15:09:27;7.57;;;7.07;;
25467;SDS011;13384;24.794;110.498;2023-07-24T15:11:59;8.00;;;7.50;;
25467;SDS011;13384;24.794;110.498;2023-07-24T15:14:31;7.55;;;7.05;;
25467;SDS011;13384;24.794;110.498;2023-07-24T15:17:04;8.38;;;7.78;;
25467;SDS011;13384;24.794;110.498;2023-07-24T15:19:37;8.20;;;7.70;;
25467;SDS011;13384;24.794;110.498;2023-07-24T15:22:08;8.52;;;7.93;;
25467;SDS011;13384;24.794;110.498;2023-07-24T15:24:40;7.90;;;7.40;;